createdAt,value
2019-05-06T00:00:59.744Z,107.25
2019-05-06T00:03:34.215Z,124.07
2019-05-06T00:06:06.348Z,71.00
2019-05-06T00:08:38.719Z,89.40
2019-05-06T00:11:11.008Z,32.95
2019-05-06T00:13:44.513Z,38.00
2019-05-06T00:16:17.087Z,47.95
2019-05-06T00:18:49.665Z,23.65
2019-05-06T00:21:24.370Z,98.22
2019-05-06T00:23:56.465Z,85.10
2019-05-06T00:26:34.123Z,76.80
2019-05-06T00:29:09.197Z,55.40
2019-05-06T00:31:43.885Z,31.60
2019-05-06T00:34:15.887Z,50.00
2019-05-06T00:36:48.276Z,44.63
2019-05-06T00:39:24.210Z,82.97
2019-05-06T00:41:57.954Z,61.77
2019-05-06T00:44:30.406Z,43.95
2019-05-06T00:47:04.322Z,55.63
2019-05-06T00:49:36.676Z,28.80
2019-05-06T00:52:09.371Z,23.77
2019-05-06T00:54:43.644Z,26.68
2019-05-06T00:57:15.947Z,21.57
2019-05-06T00:59:49.759Z,37.30
2019-05-06T01:02:23.464Z,8.00
2019-05-06T01:04:55.738Z,8.85
2019-05-06T01:07:28.022Z,9.25
2019-05-06T01:10:00.494Z,9.20
2019-05-06T01:12:34.646Z,9.75
2019-05-06T01:15:09.139Z,9.88
2019-05-06T01:17:44.418Z,8.20
2019-05-06T01:20:17.764Z,10.13
2019-05-06T01:22:50.026Z,7.15
2019-05-06T01:25:23.743Z,7.47
2019-05-06T01:27:56.024Z,6.75
2019-05-06T01:30:28.296Z,8.78
2019-05-06T01:33:00.453Z,7.90
2019-05-06T01:35:35.061Z,8.65
2019-05-06T01:38:20.672Z,8.18
2019-05-06T01:40:54.770Z,10.08
2019-05-06T01:43:28.900Z,7.95
2019-05-06T01:46:01.069Z,10.35
2019-05-06T01:48:50.027Z,6.90
2019-05-06T01:51:24.119Z,15.63
2019-05-06T01:53:56.615Z,9.68
2019-05-06T01:56:28.869Z,11.63
2019-05-06T01:59:01.261Z,13.05
2019-05-06T02:01:34.272Z,9.93
2019-05-06T02:04:07.633Z,8.28
2019-05-06T02:06:39.923Z,10.23
2019-05-06T02:09:15.857Z,9.70
2019-05-06T02:11:48.385Z,10.28
2019-05-06T02:14:20.608Z,8.70
2019-05-06T02:16:54.540Z,9.35
2019-05-06T02:19:26.931Z,10.05
2019-05-06T02:22:01.133Z,9.68
2019-05-06T02:24:35.150Z,8.28
2019-05-06T02:27:07.826Z,7.72
2019-05-06T02:29:43.451Z,11.12
2019-05-06T02:32:26.078Z,9.70
2019-05-06T02:35:07.769Z,10.65
2019-05-06T02:37:46.871Z,10.63
2019-05-06T02:40:25.064Z,10.98
2019-05-06T02:42:55.846Z,7.83
2019-05-06T02:45:28.227Z,9.20
2019-05-06T02:48:14.155Z,9.20
2019-05-06T02:50:48.012Z,9.00
2019-05-06T02:53:23.595Z,10.45
2019-05-06T02:55:56.443Z,7.90
2019-05-06T02:58:33.627Z,10.35
2019-05-06T03:01:06.222Z,6.80
2019-05-06T03:03:38.689Z,9.13
2019-05-06T03:06:13.110Z,10.45
2019-05-06T03:08:45.283Z,11.33
2019-05-06T03:11:17.865Z,10.08
2019-05-06T03:13:50.337Z,10.23
2019-05-06T03:16:23.787Z,9.45
2019-05-06T03:18:56.094Z,8.30
2019-05-06T03:21:33.653Z,10.53
2019-05-06T03:24:18.360Z,11.60
2019-05-06T03:26:56.856Z,8.43
2019-05-06T03:29:29.454Z,10.45
2019-05-06T03:32:06.135Z,8.20
2019-05-06T03:34:57.961Z,11.70
2019-05-06T03:37:09.646Z,9.05
2019-05-06T03:39:43.367Z,9.10
2019-05-06T03:42:16.597Z,9.95
2019-05-06T03:44:53.293Z,10.05
2019-05-06T03:47:29.469Z,12.35
2019-05-06T03:50:04.727Z,10.78
2019-05-06T03:52:35.876Z,11.55
2019-05-06T03:55:08.447Z,11.88
2019-05-06T03:57:42.764Z,6.65
2019-05-06T04:00:16.295Z,7.97
2019-05-06T04:02:48.854Z,8.20
2019-05-06T04:05:23.775Z,13.00
2019-05-06T04:07:55.587Z,11.85
2019-05-06T04:10:28.126Z,15.08
2019-05-06T04:13:04.135Z,13.62
2019-05-06T04:18:23.855Z,14.35
2019-05-06T04:20:56.845Z,11.08
2019-05-06T04:23:33.159Z,12.20
2019-05-06T04:26:16.130Z,11.53
2019-05-06T04:28:48.517Z,9.23
2019-05-06T04:31:22.865Z,8.38
2019-05-06T04:34:08.428Z,8.70
2019-05-06T04:36:28.744Z,8.85
2019-05-06T04:39:13.180Z,10.45
2019-05-06T04:41:45.144Z,12.90
2019-05-06T04:44:17.693Z,9.45
2019-05-06T04:46:49.982Z,10.40
2019-05-06T04:49:23.746Z,7.45
2019-05-06T04:51:56.059Z,10.08
2019-05-06T04:54:28.247Z,6.60
2019-05-06T04:57:00.533Z,13.62
2019-05-06T04:59:33.104Z,14.50
2019-05-06T05:02:05.399Z,12.25
2019-05-06T05:04:38.031Z,38.35
2019-05-06T05:07:12.637Z,9.98
2019-05-06T05:09:44.410Z,9.33
2019-05-06T05:12:18.075Z,6.70
2019-05-06T05:14:55.196Z,10.30
2019-05-06T05:17:33.114Z,11.45
2019-05-06T05:20:07.670Z,8.80
2019-05-06T05:22:42.219Z,7.80
2019-05-06T05:25:13.731Z,7.08
2019-05-06T05:27:46.132Z,8.43
2019-05-06T05:30:18.466Z,13.60
2019-05-06T05:32:52.092Z,6.80
2019-05-06T05:35:24.328Z,12.23
2019-05-06T05:37:56.733Z,11.55
2019-05-06T05:40:29.288Z,8.25
2019-05-06T05:43:18.554Z,11.65
2019-05-06T05:45:52.331Z,14.83
2019-05-06T05:48:42.538Z,21.05
2019-05-06T05:51:15.009Z,10.60
2019-05-06T05:53:47.473Z,10.25
2019-05-06T05:56:19.760Z,6.55
2019-05-06T05:58:53.555Z,8.63
2019-05-06T06:01:25.901Z,6.97
2019-05-06T11:49:04.964Z,21.42
2019-05-06T11:51:38.144Z,3.87
2019-05-06T11:54:17.449Z,3.15
2019-05-06T11:56:50.904Z,6.05
2019-05-06T11:59:19.489Z,3.03
2019-05-06T12:01:53.693Z,2.12
2019-05-06T12:04:25.916Z,7.00
2019-05-06T12:07:10.335Z,7.12
2019-05-06T12:09:35.442Z,4.97
2019-05-06T12:12:07.713Z,5.35
2019-05-06T12:14:40.077Z,5.95
2019-05-06T12:17:12.831Z,2.05
2019-05-06T12:19:45.194Z,4.37
2019-05-06T12:22:17.221Z,4.85
2019-05-06T12:24:49.355Z,5.87
2019-05-06T12:27:26.285Z,6.67
2019-05-06T12:29:58.790Z,4.85
2019-05-06T12:32:33.095Z,5.78
2019-05-06T12:35:07.216Z,3.00
2019-05-06T12:37:44.056Z,6.55
2019-05-06T12:40:16.248Z,5.42
2019-05-06T12:42:49.910Z,7.17
2019-05-06T12:45:35.601Z,4.45
2019-05-06T12:48:13.071Z,5.05
2019-05-06T12:50:44.868Z,7.78
2019-05-06T12:53:17.031Z,2.55
2019-05-06T12:55:49.276Z,3.58
2019-05-06T12:58:23.369Z,5.28
2019-05-06T13:00:55.557Z,2.45
2019-05-06T13:03:27.736Z,7.35
2019-05-06T13:06:00.000Z,6.05
2019-05-06T13:08:52.647Z,2.92
2019-05-06T13:11:07.860Z,2.72
2019-05-06T13:13:55.566Z,3.50
2019-05-06T13:16:15.871Z,2.20
2019-05-06T13:18:51.658Z,4.03
2019-05-06T13:21:22.468Z,3.92
2019-05-06T13:23:56.250Z,34.10
2019-05-06T13:26:28.520Z,3.95
2019-05-06T13:29:04.350Z,8.70
2019-05-06T13:31:37.664Z,3.75
2019-05-06T13:34:13.381Z,6.05
2019-05-06T13:36:45.820Z,4.05
2019-05-06T13:39:18.076Z,3.20
2019-05-06T13:41:52.978Z,9.43
2019-05-06T13:44:25.239Z,17.27
2019-05-06T13:46:57.933Z,7.12
2019-05-06T13:49:38.024Z,3.00
2019-05-06T13:54:18.876Z,13.22
2019-05-06T13:56:52.534Z,4.40
2019-05-06T13:59:29.452Z,4.90
2019-05-06T14:02:00.305Z,3.22
2019-05-06T14:04:32.777Z,3.72
2019-05-06T14:07:07.396Z,8.70
2019-05-06T14:09:42.755Z,18.80
2019-05-06T14:12:14.251Z,11.70
2019-05-06T14:14:46.484Z,4.60
2019-05-06T14:17:18.570Z,11.05
2019-05-06T14:19:53.147Z,6.90
2019-05-06T14:22:24.633Z,2.25
2019-05-06T14:24:58.538Z,6.58
2019-05-06T14:27:32.769Z,6.40
2019-05-06T14:30:08.888Z,4.83
2019-05-06T14:32:43.286Z,6.47
2019-05-06T14:35:15.502Z,5.85
2019-05-06T14:37:47.967Z,9.90
2019-05-06T14:40:22.575Z,4.47
2019-05-06T14:42:54.778Z,5.15
2019-05-06T14:45:27.040Z,10.82
2019-05-06T14:47:59.632Z,4.53
2019-05-06T14:50:44.404Z,7.00
2019-05-06T14:53:06.337Z,4.87
2019-05-06T14:55:39.727Z,4.80
2019-05-06T14:58:12.128Z,17.00
2019-05-06T15:00:44.586Z,8.50
2019-05-06T15:03:16.951Z,22.45
2019-05-06T15:05:49.319Z,15.53
2019-05-06T15:08:22.492Z,11.30
2019-05-06T15:10:54.982Z,10.70
2019-05-06T15:13:27.790Z,12.53
2019-05-06T15:16:03.487Z,7.50
2019-05-06T15:18:34.272Z,4.03
2019-05-06T16:04:02.234Z,12.73
2019-05-06T16:06:35.815Z,9.10
2019-05-06T16:09:08.311Z,13.32
2019-05-06T16:11:44.525Z,11.45
2019-05-06T16:14:16.132Z,6.47
2019-05-06T16:16:48.589Z,12.13
2019-05-06T16:19:22.839Z,9.58
2019-05-06T16:21:54.978Z,6.28
2019-05-06T16:24:34.573Z,4.67
2019-05-06T16:27:05.578Z,4.97
2019-05-06T16:29:37.953Z,6.95
2019-05-06T16:32:10.868Z,7.30
2019-05-06T16:34:44.029Z,4.30
2019-05-06T16:37:16.409Z,10.65
2019-05-06T16:39:48.781Z,13.85
2019-05-06T16:42:22.588Z,9.50
2019-05-06T16:44:54.860Z,11.03
2019-05-06T16:47:38.045Z,9.28
2019-05-06T16:50:13.365Z,12.35
2019-05-06T16:52:45.930Z,16.35
2019-05-06T16:55:19.817Z,12.15
2019-05-06T16:57:53.928Z,8.23
2019-05-06T17:00:27.841Z,7.22
2019-05-06T17:03:07.668Z,9.15
2019-05-06T17:05:44.662Z,10.88
2019-05-06T17:08:17.023Z,7.03
2019-05-06T17:10:49.318Z,8.55
2019-05-06T17:13:22.820Z,10.70
2019-05-06T17:15:55.185Z,13.22
2019-05-06T17:18:27.767Z,12.30
2019-05-06T17:21:00.346Z,13.95
2019-05-06T17:23:33.947Z,8.85
2019-05-06T17:26:06.325Z,12.43
2019-05-06T17:28:46.379Z,14.35
2019-05-06T17:31:22.325Z,12.47
2019-05-06T17:34:09.325Z,18.75
2019-05-06T17:36:42.240Z,26.73
2019-05-06T17:39:14.586Z,20.27
2019-05-06T17:41:49.161Z,24.82
2019-05-06T17:44:22.836Z,16.25
2019-05-06T17:47:05.847Z,16.27
2019-05-06T17:49:39.451Z,16.30
2019-05-06T17:52:22.554Z,15.80
2019-05-06T17:54:54.851Z,15.98
2019-05-06T17:57:27.204Z,17.90
2019-05-06T17:59:59.679Z,10.88
2019-05-06T18:02:33.077Z,11.68
2019-05-06T18:05:06.084Z,11.00
2019-05-06T18:07:39.276Z,28.80
2019-05-06T18:10:12.087Z,26.45
2019-05-06T18:12:44.521Z,17.27
2019-05-06T18:15:17.120Z,33.28
2019-05-06T18:17:52.477Z,25.95
2019-05-06T18:20:24.923Z,27.15
2019-05-06T18:22:57.603Z,19.65
2019-05-06T18:25:32.806Z,16.93
2019-05-06T18:28:05.235Z,17.67
2019-05-06T18:30:37.917Z,26.05
2019-05-06T18:33:10.285Z,20.37
2019-05-06T18:35:42.651Z,21.25
2019-05-06T18:38:15.142Z,30.57
2019-05-06T18:40:47.606Z,47.35
2019-05-06T18:43:20.204Z,97.53
2019-05-06T18:45:52.574Z,63.73
2019-05-06T18:48:29.540Z,159.78
2019-05-06T18:50:59.173Z,57.33
2019-05-06T18:53:33.128Z,61.48
2019-05-06T18:56:06.168Z,65.30
2019-05-06T18:58:38.747Z,61.02
2019-05-06T19:01:13.211Z,75.40
2019-05-06T19:03:46.551Z,61.85
2019-05-06T19:06:18.824Z,60.78
2019-05-06T19:09:02.576Z,55.78
2019-05-06T19:11:36.498Z,61.90
2019-05-06T19:14:08.744Z,57.15
2019-05-06T19:16:49.956Z,59.42
2019-05-06T19:19:15.334Z,73.15
2019-05-06T19:21:47.824Z,54.08
2019-05-06T19:24:22.467Z,78.28
2019-05-06T19:26:54.110Z,542.37
2019-05-06T19:29:27.011Z,351.50
2019-05-06T19:31:59.255Z,204.30
2019-05-06T19:34:35.210Z,159.05
2019-05-06T19:37:07.074Z,83.80
2019-05-06T19:39:39.672Z,56.90
2019-05-06T19:42:12.971Z,55.43
2019-05-06T19:44:46.363Z,97.67
2019-05-06T19:47:18.929Z,98.67
2019-05-06T19:49:53.156Z,102.58
2019-05-06T19:52:25.432Z,76.50
2019-05-06T19:54:58.019Z,102.75
2019-05-06T19:57:32.346Z,120.40
2019-05-06T20:00:05.427Z,107.60
2019-05-06T20:02:39.233Z,142.55
2019-05-06T20:05:13.141Z,129.32
2019-05-06T20:07:47.151Z,80.38
2019-05-06T20:10:33.224Z,44.40
2019-05-06T20:13:06.318Z,40.30
2019-05-06T20:15:39.618Z,35.30
2019-05-06T20:18:11.781Z,80.03
2019-05-06T20:20:44.366Z,97.90
2019-05-06T20:23:16.736Z,88.97
2019-05-06T20:25:49.125Z,95.32
2019-05-06T20:28:22.742Z,119.35
2019-05-06T20:30:56.213Z,111.30
2019-05-06T20:33:28.913Z,123.87
2019-05-06T20:36:02.414Z,108.50
2019-05-06T20:38:34.566Z,112.32
2019-05-06T20:41:07.269Z,105.30
2019-05-06T20:43:42.362Z,113.85
2019-05-06T20:46:14.783Z,109.52
2019-05-06T20:48:47.154Z,89.67
2019-05-06T20:51:21.800Z,83.90
2019-05-06T20:53:53.422Z,88.33
2019-05-06T20:56:26.001Z,78.50
2019-05-06T20:58:58.583Z,60.73
2019-05-06T21:01:32.627Z,57.05
2019-05-06T21:04:04.990Z,39.33
2019-05-06T21:06:37.548Z,27.48
2019-05-06T21:09:12.222Z,37.42
2019-05-06T21:11:44.243Z,51.70
2019-05-06T21:14:16.824Z,53.60
2019-05-06T21:16:49.216Z,58.15
2019-05-06T21:19:22.223Z,70.90
2019-05-06T21:21:54.765Z,79.92
2019-05-06T21:24:27.158Z,85.05
2019-05-06T21:27:02.817Z,85.05
2019-05-06T21:29:34.772Z,89.65
2019-05-06T21:32:07.134Z,83.85
2019-05-06T21:34:39.724Z,93.27
2019-05-06T21:37:12.399Z,80.05
2019-05-06T21:39:44.763Z,81.55
2019-05-06T21:42:18.999Z,84.83
2019-05-06T21:44:52.269Z,73.00
2019-05-06T21:47:24.656Z,78.40
2019-05-06T21:49:57.258Z,74.40
2019-05-06T21:52:38.885Z,68.67
2019-05-06T21:55:04.359Z,73.72
2019-05-06T21:57:36.625Z,74.92
2019-05-06T22:00:12.662Z,60.12
2019-05-06T22:02:46.289Z,51.42
2019-05-06T22:05:18.954Z,50.55
2019-05-06T22:07:52.567Z,47.50
2019-05-06T22:10:25.238Z,39.00
2019-05-06T22:12:57.633Z,37.15
2019-05-06T22:15:32.257Z,16.40
2019-05-06T22:18:04.224Z,11.63
2019-05-06T22:20:55.222Z,9.80
2019-05-06T22:23:28.911Z,14.93
2019-05-06T22:26:10.836Z,11.78
2019-05-06T22:28:35.144Z,7.95
2019-05-06T22:31:07.584Z,7.50
2019-05-06T22:33:39.950Z,9.05
2019-05-06T22:36:13.197Z,7.67
2019-05-06T22:38:45.527Z,11.08
2019-05-06T22:41:18.006Z,11.63
2019-05-06T22:43:50.489Z,8.18
2019-05-06T22:46:23.562Z,11.18
2019-05-06T22:48:56.053Z,9.75
2019-05-06T22:51:28.415Z,10.53
2019-05-06T22:54:02.726Z,13.15
2019-05-06T22:56:34.903Z,10.20
2019-05-06T22:59:07.394Z,15.32
2019-05-06T23:01:43.089Z,6.17
2019-05-06T23:04:16.526Z,7.45
2019-05-06T23:06:48.609Z,7.50
2019-05-06T23:09:22.887Z,9.05
2019-05-06T23:11:54.897Z,11.28
2019-05-06T23:14:31.499Z,10.28
2019-05-06T23:17:02.882Z,13.03
2019-05-06T23:19:35.496Z,9.53
2019-05-06T23:22:07.873Z,13.72
2019-05-06T23:24:40.249Z,7.47
2019-05-06T23:27:12.745Z,5.12
2019-05-06T23:29:45.155Z,4.10
2019-05-06T23:32:17.274Z,4.62
2019-05-06T23:34:52.358Z,5.62
2019-05-06T23:37:23.582Z,4.55
2019-05-06T23:40:35.006Z,4.95
2019-05-06T23:43:44.018Z,3.10
2019-05-06T23:46:53.145Z,3.75
2019-05-06T23:50:03.539Z,2.75
2019-05-06T23:53:12.995Z,8.18
2019-05-06T23:56:21.902Z,3.55
2019-05-06T23:58:54.291Z,7.08
